CheckWX is a tool to help pilots better visualize weather data.  It is not intended as a substitute for an official pre-flight weather briefing.

12:03:09 UTC

VTBO METAR
Trat Airport
Thailand
Current

1 hour ago

VTBO 311100Z 23009KT 9999 FEW020 30/26 Q1008
Observed
Mar-31 @ 11:00 UTC
Wind
  • 230° at 9 KTS
Visibility
10,000+ meters
Flight Rules
VFR
Cloud Levels
  • Few at 2,000' AGL
Temperature
30°C / 86°F
Dewpoint
26°C / 79°F
Humidity
79%
Altimeter
29.76" Hg
Pressure
1007.92 hPa
Previous

2 hours ago

VTBO 311000Z 23014KT 9999 FEW020 31/26 Q1007
Observed
Mar-31 @ 10:00 UTC
Wind
  • 230° at 14 KTS
Visibility
10,000+ meters
Flight Rules
VFR
Cloud Levels
  • Few at 2,000' AGL
Temperature
31°C / 88°F
Dewpoint
26°C / 79°F
Humidity
75%
Altimeter
29.73" Hg
Pressure
1006.92 hPa
Previous

3 hours ago

VTBO 310900Z 23011KT 9999 FEW020 32/26 Q1008
Observed
Mar-31 @ 09:00 UTC
Wind
  • 230° at 11 KTS
Visibility
10,000+ meters
Flight Rules
VFR
Cloud Levels
  • Few at 2,000' AGL
Temperature
32°C / 90°F
Dewpoint
26°C / 79°F
Humidity
71%
Altimeter
29.76" Hg
Pressure
1007.92 hPa